createdAt,value
2022-09-06T00:02:19.067Z,101654.38
2022-09-06T00:04:45.469Z,101654.97
2022-09-06T00:07:11.981Z,101648.34
2022-09-06T00:09:38.376Z,101641.25
2022-09-06T00:12:04.945Z,101629.16
2022-09-06T00:14:31.346Z,101634.88
2022-09-06T00:16:57.737Z,101615.44
2022-09-06T00:19:24.142Z,101647.34
2022-09-06T00:21:50.547Z,101627.97
2022-09-06T00:24:16.933Z,101623.13
2022-09-06T00:26:43.369Z,101634.88
2022-09-06T00:29:09.859Z,101614.84
2022-09-06T00:31:36.354Z,101634.88
2022-09-06T00:34:02.893Z,101644.16
2022-09-06T00:36:29.316Z,101653.25
2022-09-06T00:38:56.400Z,101642.28
2022-09-06T00:41:22.793Z,101586.34
2022-09-06T00:43:49.224Z,101627.69
2022-09-06T00:46:18.495Z,101625.91
2022-09-06T00:48:45.486Z,101652.16
2022-09-06T00:51:13.302Z,101660.91
2022-09-06T00:53:39.965Z,101647.84
2022-09-06T00:56:06.537Z,101666.19
2022-09-06T00:58:33.127Z,101647.78
2022-09-06T01:00:59.584Z,101656.88
2022-09-06T01:03:26.357Z,101645.13
2022-09-06T01:06:14.690Z,101640.09
2022-09-06T01:09:05.746Z,101630.03
2022-09-06T01:11:56.493Z,101624.53
2022-09-06T01:14:44.689Z,101630.63
2022-09-06T01:17:19.053Z,101633.47
2022-09-06T01:20:27.172Z,101633.13
2022-09-06T01:23:06.963Z,101595.13
2022-09-06T01:25:59.916Z,101634.59
2022-09-06T01:28:45.365Z,101645.44
2022-09-06T01:31:48.382Z,101644.50
2022-09-06T01:34:21.741Z,101641.09
2022-09-06T01:37:09.004Z,101601.81
2022-09-06T01:39:37.393Z,101618.41
2022-09-06T01:42:15.621Z,101588.41
2022-09-06T01:44:53.649Z,101610.50
2022-09-06T01:47:25.133Z,101590.66
2022-09-06T01:50:24.109Z,101613.63
2022-09-06T01:52:56.319Z,101589.41
2022-09-06T01:56:07.706Z,101609.03
2022-09-06T01:58:59.981Z,101605.75
2022-09-06T02:01:49.577Z,101601.25
2022-09-06T02:04:34.055Z,101566.66
2022-09-06T02:07:03.366Z,101541.00
2022-09-06T02:09:34.985Z,101549.50
2022-09-06T02:12:02.567Z,101517.09
2022-09-06T02:14:36.206Z,101534.66
2022-09-06T02:17:05.060Z,101519.06
2022-09-06T02:19:43.259Z,101499.94
2022-09-06T02:22:12.181Z,101497.28
2022-09-06T02:24:40.650Z,101481.63
2022-09-06T02:27:07.672Z,101470.34
2022-09-06T02:29:34.842Z,101453.19
2022-09-06T02:32:08.354Z,101469.50
2022-09-06T02:34:37.960Z,101474.09
2022-09-06T02:37:05.037Z,101476.72
2022-09-06T02:39:31.475Z,101472.31
2022-09-06T02:41:58.485Z,101450.69
2022-09-06T02:44:24.881Z,101457.38
2022-09-06T02:46:55.053Z,101446.47
2022-09-06T02:49:23.864Z,101468.69
2022-09-06T02:51:50.849Z,101474.53
2022-09-06T02:54:17.229Z,101480.03
2022-09-06T02:56:43.627Z,101478.38
2022-09-06T02:59:10.028Z,101488.47
2022-09-06T03:01:36.451Z,101487.34
2022-09-06T03:04:03.051Z,101488.41
2022-09-06T03:06:30.397Z,101495.06
2022-09-06T03:08:56.832Z,101463.13
2022-09-06T03:11:23.223Z,101487.72
2022-09-06T03:13:51.021Z,101491.16
2022-09-06T03:16:17.490Z,101508.84
2022-09-06T03:18:43.992Z,101510.53
2022-09-06T03:21:10.620Z,101497.00
2022-09-06T03:23:38.844Z,101501.81
2022-09-06T03:26:06.300Z,101455.78
2022-09-06T03:28:32.703Z,101501.28
2022-09-06T03:30:59.213Z,101479.50
2022-09-06T03:33:25.748Z,101493.44
2022-09-06T03:35:57.615Z,101502.16
2022-09-06T03:38:25.126Z,101501.56
2022-09-06T03:40:52.863Z,101508.44
2022-09-06T03:43:19.823Z,101499.97
2022-09-06T03:45:48.130Z,101499.16
2022-09-06T03:48:15.388Z,101498.75
2022-09-06T03:50:46.173Z,101497.97
2022-09-06T03:53:12.920Z,101509.91
2022-09-06T03:55:39.454Z,101515.78
2022-09-06T03:58:05.876Z,101508.50
2022-09-06T04:00:33.533Z,101521.88
2022-09-06T04:03:01.930Z,101514.97
2022-09-06T04:05:28.490Z,101520.59
2022-09-06T04:07:54.923Z,101512.31
2022-09-06T04:10:21.428Z,101517.78
2022-09-06T04:12:47.926Z,101528.91
2022-09-06T04:15:14.371Z,101526.13
2022-09-06T04:17:45.093Z,101541.09
2022-09-06T04:20:12.466Z,101549.16
2022-09-06T04:22:39.098Z,101557.25
2022-09-06T04:25:06.027Z,101553.84
2022-09-06T04:27:32.817Z,101556.66
2022-09-06T04:29:59.222Z,101566.16
2022-09-06T04:32:25.604Z,101570.81
2022-09-06T04:34:51.987Z,101571.63
2022-09-06T04:37:20.012Z,101568.75
2022-09-06T04:39:47.064Z,101574.63
2022-09-06T04:42:13.487Z,101562.69
2022-09-06T04:44:39.929Z,101562.69
2022-09-06T04:47:12.600Z,101573.41
2022-09-06T04:49:38.992Z,101576.44
2022-09-06T04:52:05.393Z,101575.41
2022-09-06T04:54:31.893Z,101585.06
2022-09-06T04:56:58.299Z,101580.59
2022-09-06T04:59:24.865Z,101573.53
2022-09-06T05:01:51.494Z,101588.91
2022-09-06T05:04:17.960Z,101589.56
2022-09-06T05:06:44.921Z,101575.56
2022-09-06T05:09:11.779Z,101590.09
2022-09-06T05:11:38.173Z,101587.22
2022-09-06T05:14:04.739Z,101586.63
2022-09-06T05:16:31.213Z,101587.06
2022-09-06T05:18:57.769Z,101587.25
2022-09-06T05:21:24.216Z,101593.13
2022-09-06T05:23:52.596Z,101584.63
2022-09-06T05:26:20.735Z,101588.47
2022-09-06T05:28:47.312Z,101591.34
2022-09-06T05:31:25.918Z,101590.38
2022-09-06T05:33:53.495Z,101588.53
2022-09-06T05:36:20.502Z,101586.97
2022-09-06T05:38:46.892Z,101583.72
2022-09-06T05:41:13.322Z,101570.16
2022-09-06T05:43:39.882Z,101588.59
2022-09-06T05:46:06.408Z,101584.56
2022-09-06T05:48:36.788Z,101579.50
2022-09-06T05:51:06.284Z,101579.72
2022-09-06T05:53:36.560Z,101580.94
2022-09-06T05:56:03.873Z,101582.97
2022-09-06T05:58:30.588Z,101590.84
2022-09-06T06:01:31.282Z,101580.94
2022-09-06T06:03:58.882Z,101574.66
2022-09-06T06:06:27.457Z,101575.47
2022-09-06T06:08:54.379Z,101574.47
2022-09-06T06:11:20.944Z,101580.31
2022-09-06T06:13:47.364Z,101580.91
2022-09-06T06:16:15.890Z,101584.78
2022-09-06T06:18:42.417Z,101577.28
2022-09-06T06:21:09.479Z,101573.88
2022-09-06T06:23:36.116Z,101576.25
2022-09-06T06:26:02.751Z,101566.56
2022-09-06T06:28:29.229Z,101580.75
2022-09-06T06:30:55.703Z,101572.03
2022-09-06T06:33:22.141Z,101579.50
2022-09-06T06:36:01.672Z,101579.50
2022-09-06T06:38:37.475Z,101564.94
2022-09-06T06:41:06.979Z,101570.19
2022-09-06T06:43:37.502Z,101573.41
2022-09-06T06:46:11.033Z,101574.66
2022-09-06T06:48:39.664Z,101564.72
2022-09-06T06:51:06.279Z,101568.41
2022-09-06T06:53:32.844Z,101566.56
2022-09-06T06:55:59.410Z,101576.25
2022-09-06T06:58:25.953Z,101568.75
2022-09-06T07:00:52.417Z,101567.50
2022-09-06T07:03:18.944Z,101562.84
2022-09-06T07:08:33.634Z,101561.19
2022-09-06T07:11:00.180Z,101552.00
2022-09-06T07:13:26.639Z,101554.38
2022-09-06T07:15:53.079Z,101555.16
2022-09-06T07:18:19.559Z,101552.13
2022-09-06T07:26:27.947Z,101534.72
2022-09-06T07:28:55.650Z,101527.28
2022-09-06T07:34:08.768Z,101527.06
2022-09-06T07:36:35.323Z,101534.66
2022-09-06T07:39:01.791Z,101534.53
2022-09-06T07:41:28.194Z,101533.16
2022-09-06T07:43:54.759Z,101536.09
2022-09-06T07:46:22.041Z,101536.53
2022-09-06T07:48:49.636Z,101538.94
2022-09-06T07:51:18.050Z,101545.91
2022-09-06T07:53:50.550Z,101551.19
2022-09-06T07:56:20.310Z,101548.84
2022-09-06T07:58:46.805Z,101558.22
2022-09-06T08:01:16.030Z,101556.28
2022-09-06T08:03:42.580Z,101546.75
2022-09-06T08:06:09.913Z,101549.44
2022-09-06T08:11:27.350Z,101534.78
2022-09-06T08:13:55.548Z,101531.44
2022-09-06T08:16:25.200Z,101530.16
2022-09-06T08:18:53.478Z,101526.78
2022-09-06T08:21:20.852Z,101514.84
2022-09-06T08:23:48.938Z,101518.28
2022-09-06T08:26:16.678Z,101522.38
2022-09-06T08:28:43.430Z,101516.31
2022-09-06T08:31:15.034Z,101520.44
2022-09-06T08:33:42.426Z,101520.00
2022-09-06T08:36:09.607Z,101519.84
2022-09-06T08:38:36.360Z,101520.13
2022-09-06T08:41:18.185Z,101508.50
2022-09-06T08:47:01.176Z,101506.47
2022-09-06T08:49:31.354Z,101506.56
2022-09-06T08:52:29.970Z,101512.97
2022-09-06T08:55:02.025Z,101515.16
2022-09-06T08:57:40.609Z,101517.34
2022-09-06T09:00:11.304Z,101507.19
2022-09-06T09:02:57.459Z,101511.19
2022-09-06T09:05:28.379Z,101511.34
2022-09-06T09:08:03.838Z,101512.25
2022-09-06T09:10:32.464Z,101501.94
2022-09-06T09:13:01.324Z,101499.94
2022-09-06T09:15:28.819Z,101497.66
2022-09-06T09:17:55.517Z,101498.25
2022-09-06T09:20:22.048Z,101504.88
2022-09-06T09:22:48.651Z,101508.72
2022-09-06T09:25:24.706Z,101508.88
2022-09-06T09:27:58.240Z,101499.78
2022-09-06T09:33:21.906Z,101481.88
2022-09-06T09:35:48.638Z,101486.47
2022-09-06T09:38:42.592Z,101494.16
2022-09-06T09:41:11.003Z,101487.59
2022-09-06T09:43:42.312Z,101486.59
2022-09-06T09:46:15.960Z,101492.00
2022-09-06T09:49:09.575Z,101488.69
2022-09-06T09:51:41.736Z,101489.75
2022-09-06T09:54:10.616Z,101498.03
2022-09-06T09:56:36.889Z,101490.44
2022-09-06T09:59:08.330Z,101484.19
2022-09-06T10:01:34.764Z,101486.53
2022-09-06T10:09:38.893Z,101489.78
2022-09-06T10:12:05.608Z,101486.41
2022-09-06T10:14:40.708Z,101485.41
2022-09-06T10:17:07.225Z,101484.38
2022-09-06T10:19:40.985Z,101494.66
2022-09-06T10:22:23.720Z,101482.34
2022-09-06T10:25:03.371Z,101487.22
2022-09-06T10:27:30.980Z,101476.78
2022-09-06T10:30:02.164Z,101486.50
2022-09-06T10:32:34.550Z,101477.69
2022-09-06T10:35:25.025Z,101486.69
2022-09-06T10:38:14.377Z,101492.81
2022-09-06T10:41:29.503Z,101490.81
2022-09-06T10:44:15.986Z,101495.34
2022-09-06T10:46:44.917Z,101506.09
2022-09-06T10:49:15.900Z,101507.94
2022-09-06T10:51:46.797Z,101506.28
2022-09-06T10:54:14.092Z,101501.78
2022-09-06T10:56:47.560Z,101505.47
2022-09-06T10:59:41.918Z,101504.31
2022-09-06T11:02:18.895Z,101507.34
2022-09-06T11:07:37.949Z,101524.03
2022-09-06T11:10:30.834Z,101517.94
2022-09-06T11:13:05.208Z,101520.47
2022-09-06T11:15:37.579Z,101523.31
2022-09-06T11:18:11.953Z,101529.44
2022-09-06T11:20:42.487Z,101509.94
2022-09-06T11:23:25.886Z,101522.72
2022-09-06T11:26:14.769Z,101533.41
2022-09-06T11:28:47.160Z,101532.50
2022-09-06T11:34:20.160Z,101536.66
2022-09-06T11:36:48.681Z,101544.78
2022-09-06T11:42:44.125Z,101532.66
2022-09-06T11:45:10.413Z,101540.34
2022-09-06T11:47:39.852Z,101538.44
2022-09-06T11:50:21.521Z,101540.25
2022-09-06T11:53:12.906Z,101530.88
2022-09-06T11:55:41.354Z,101537.00
2022-09-06T11:58:19.998Z,101541.19
2022-09-06T12:01:07.209Z,101531.38
2022-09-06T12:06:32.407Z,101540.34
2022-09-06T12:08:59.394Z,101529.56
2022-09-06T12:11:30.486Z,101533.38
2022-09-06T12:14:03.008Z,101543.78
2022-09-06T12:16:55.640Z,101547.44
2022-09-06T12:19:44.468Z,101546.50
2022-09-06T12:22:26.418Z,101539.69
2022-09-06T12:25:01.685Z,101540.50
2022-09-06T12:27:52.601Z,101533.34
2022-09-06T12:30:33.102Z,101533.94
2022-09-06T12:33:00.295Z,101535.22
2022-09-06T12:38:23.929Z,101532.25
2022-09-06T12:40:58.434Z,101534.50
2022-09-06T12:43:25.212Z,101520.97
2022-09-06T12:45:52.476Z,101522.66
2022-09-06T12:48:29.756Z,101524.41
2022-09-06T12:51:02.423Z,101524.03
2022-09-06T12:53:31.417Z,101513.13
2022-09-06T12:56:14.406Z,101514.63
2022-09-06T12:58:40.859Z,101514.88
2022-09-06T13:01:31.252Z,101510.47
2022-09-06T13:04:11.909Z,101512.41
2022-09-06T13:06:42.312Z,101504.78
2022-09-06T13:09:12.150Z,101488.56
2022-09-06T13:11:43.523Z,101489.34
2022-09-06T13:14:17.920Z,101492.28
2022-09-06T13:16:50.348Z,101499.50
2022-09-06T13:19:18.960Z,101493.06
2022-09-06T13:21:46.895Z,101488.22
2022-09-06T13:24:35.314Z,101480.63
2022-09-06T13:27:25.647Z,101480.66
2022-09-06T13:29:56.723Z,101469.44
2022-09-06T13:32:23.355Z,101459.78
2022-09-06T13:34:56.628Z,101460.78
2022-09-06T13:37:28.783Z,101453.56
2022-09-06T13:39:57.443Z,101449.25
2022-09-06T13:42:24.011Z,101446.34
2022-09-06T13:44:51.108Z,101441.53
2022-09-06T13:47:17.527Z,101430.38
2022-09-06T13:49:43.931Z,101440.94
2022-09-06T13:52:10.465Z,101447.81
2022-09-06T13:54:36.901Z,101434.28
2022-09-06T13:57:03.408Z,101439.59
2022-09-06T13:59:30.429Z,101441.59
2022-09-06T14:02:09.709Z,101434.97
2022-09-06T14:04:36.903Z,101441.38
2022-09-06T14:07:04.117Z,101430.56
2022-09-06T14:09:30.653Z,101438.03
2022-09-06T14:11:57.095Z,101436.81
2022-09-06T14:14:24.379Z,101442.78
2022-09-06T14:16:50.920Z,101451.94
2022-09-06T14:19:17.352Z,101459.38
2022-09-06T14:21:43.775Z,101454.81
2022-09-06T14:24:10.238Z,101448.44
2022-09-06T14:26:36.850Z,101467.75
2022-09-06T14:29:03.653Z,101469.09
2022-09-06T14:31:32.450Z,101466.00
2022-09-06T14:33:58.984Z,101473.53
2022-09-06T14:36:29.136Z,101475.75
2022-09-06T14:38:57.574Z,101473.19
2022-09-06T14:41:24.021Z,101466.56
2022-09-06T14:43:52.434Z,101477.81
2022-09-06T14:46:20.134Z,101471.34
2022-09-06T14:48:46.934Z,101472.41
2022-09-06T14:51:20.769Z,101465.56
2022-09-06T14:53:48.790Z,101467.34
2022-09-06T14:56:15.764Z,101458.44
2022-09-06T14:58:42.802Z,101448.94
2022-09-06T15:01:14.426Z,101448.03
2022-09-06T15:03:42.883Z,101428.31
2022-09-06T15:06:10.508Z,101428.81
2022-09-06T15:08:37.911Z,101435.44
2022-09-06T15:11:07.946Z,101430.69
2022-09-06T15:13:37.011Z,101434.69
2022-09-06T15:16:05.106Z,101431.06
2022-09-06T15:18:31.810Z,101419.84
2022-09-06T15:20:58.221Z,101413.22
2022-09-06T15:23:27.262Z,101421.78
2022-09-06T15:25:54.127Z,101411.16
2022-09-06T15:28:20.628Z,101420.91
2022-09-06T15:30:47.638Z,101424.28
2022-09-06T15:33:14.980Z,101428.59
2022-09-06T15:35:44.810Z,101427.72
2022-09-06T15:38:11.902Z,101423.50
2022-09-06T15:40:38.850Z,101419.56
2022-09-06T15:43:05.352Z,101418.22
2022-09-06T15:45:47.147Z,101418.22
2022-09-06T15:48:15.824Z,101428.31
2022-09-06T15:50:51.303Z,101421.63
2022-09-06T15:53:18.710Z,101418.16
2022-09-06T15:55:57.275Z,101417.75
2022-09-06T15:58:25.123Z,101416.25
2022-09-06T16:01:06.763Z,101419.84
2022-09-06T16:03:36.931Z,101408.59
2022-09-06T16:09:01.627Z,101420.53
2022-09-06T16:11:29.723Z,101415.84
2022-09-06T16:13:56.348Z,101399.09
2022-09-06T16:16:23.095Z,101399.28
2022-09-06T16:18:49.637Z,101401.63
2022-09-06T16:21:23.781Z,101403.09
2022-09-06T16:23:55.097Z,101392.91
2022-09-06T16:26:22.748Z,101397.59
2022-09-06T16:28:50.439Z,101393.34
2022-09-06T16:31:17.487Z,101379.03
2022-09-06T16:33:45.470Z,101387.56
2022-09-06T16:36:13.793Z,101388.94
2022-09-06T16:38:40.502Z,101400.97
2022-09-06T16:41:17.169Z,101399.13
2022-09-06T16:43:44.680Z,101384.50
2022-09-06T16:46:12.017Z,101396.00
2022-09-06T16:48:40.505Z,101386.69
2022-09-06T16:51:15.858Z,101389.38
2022-09-06T16:53:43.208Z,101386.38
2022-09-06T16:56:11.204Z,101386.69
2022-09-06T16:58:39.040Z,101384.03
2022-09-06T17:01:07.736Z,101389.34
2022-09-06T17:03:34.967Z,101390.16
2022-09-06T17:06:01.421Z,101393.59
2022-09-06T17:08:27.948Z,101391.50
2022-09-06T17:10:54.777Z,101393.84
2022-09-06T17:13:21.179Z,101388.50
2022-09-06T17:16:13.535Z,101382.59
2022-09-06T17:18:39.970Z,101390.53
2022-09-06T17:21:07.409Z,101391.81
2022-09-06T17:23:35.324Z,101388.53
2022-09-06T17:26:01.997Z,101388.56
2022-09-06T17:28:28.737Z,101392.53
2022-09-06T17:30:55.328Z,101392.22
2022-09-06T17:33:23.654Z,101391.94
2022-09-06T17:35:50.053Z,101393.50
2022-09-06T17:38:16.454Z,101401.78
2022-09-06T17:40:43.399Z,101388.69
2022-09-06T17:43:09.975Z,101392.94
2022-09-06T17:45:42.409Z,101395.50
2022-09-06T17:48:09.088Z,101389.84
2022-09-06T17:50:35.483Z,101396.44
2022-09-06T17:53:02.127Z,101402.22
2022-09-06T17:55:29.116Z,101393.91
2022-09-06T17:57:56.507Z,101397.69
2022-09-06T18:00:24.012Z,101388.59
2022-09-06T18:02:50.420Z,101396.03
2022-09-06T18:05:16.994Z,101398.69
2022-09-06T18:07:43.446Z,101397.34
2022-09-06T18:10:10.555Z,101399.66
2022-09-06T18:12:36.957Z,101394.28
2022-09-06T18:15:03.478Z,101398.47
2022-09-06T18:17:30.553Z,101402.94
2022-09-06T18:19:57.620Z,101396.44
2022-09-06T18:22:24.348Z,101396.78
2022-09-06T18:24:55.024Z,101395.97
2022-09-06T18:27:24.029Z,101391.31
2022-09-06T18:29:50.453Z,101389.13
2022-09-06T18:32:16.844Z,101383.34
2022-09-06T18:34:43.250Z,101385.63
2022-09-06T18:37:09.631Z,101385.63
2022-09-06T18:39:36.094Z,101384.28
2022-09-06T18:42:06.991Z,101376.25
2022-09-06T18:44:34.244Z,101382.03
2022-09-06T18:47:02.429Z,101379.38
2022-09-06T18:49:30.000Z,101379.69
2022-09-06T18:51:56.485Z,101376.72
2022-09-06T18:54:23.013Z,101378.50
2022-09-06T18:56:50.102Z,101385.09
2022-09-06T18:59:16.908Z,101381.88
2022-09-06T19:01:43.489Z,101375.38
2022-09-06T19:04:10.739Z,101373.53
2022-09-06T19:06:39.352Z,101369.75
2022-09-06T19:09:08.575Z,101356.66
2022-09-06T19:11:35.279Z,101357.22
2022-09-06T19:14:02.263Z,101356.94
2022-09-06T19:16:29.435Z,101346.97
2022-09-06T19:18:56.744Z,101349.53
2022-09-06T19:21:27.679Z,101346.81
2022-09-06T19:24:02.496Z,101352.97
2022-09-06T19:26:31.596Z,101348.81
2022-09-06T19:29:00.105Z,101347.16
2022-09-06T19:31:29.879Z,101339.09
2022-09-06T19:33:56.488Z,101334.19
2022-09-06T19:36:23.794Z,101335.25
2022-09-06T19:39:06.338Z,101323.69
2022-09-06T19:41:35.921Z,101306.59
2022-09-06T19:44:05.324Z,101323.81
2022-09-06T19:46:32.052Z,101311.47
2022-09-06T19:48:58.748Z,101300.66
2022-09-06T19:51:25.537Z,101301.22
2022-09-06T19:53:54.061Z,101304.59
2022-09-06T19:56:32.544Z,101301.41
2022-09-06T19:59:00.998Z,101293.25
2022-09-06T20:01:29.574Z,101275.91
2022-09-06T20:03:56.713Z,101279.22
2022-09-06T20:06:23.324Z,101279.00
2022-09-06T20:08:54.961Z,101274.56
2022-09-06T20:11:22.646Z,101272.94
2022-09-06T20:13:49.185Z,101267.44
2022-09-06T20:16:16.258Z,101269.22
2022-09-06T20:18:42.848Z,101265.56
2022-09-06T20:21:09.935Z,101253.44
2022-09-06T20:23:36.658Z,101236.44
2022-09-06T20:26:13.373Z,101215.88
2022-09-06T20:28:39.864Z,101212.97
2022-09-06T20:31:10.821Z,101205.13
2022-09-06T20:33:37.759Z,101209.09
2022-09-06T20:36:06.433Z,101217.34
2022-09-06T20:38:34.695Z,101224.13
2022-09-06T20:41:16.178Z,101220.94
2022-09-06T20:43:42.703Z,101220.34
2022-09-06T20:46:19.641Z,101247.34
2022-09-06T20:48:46.753Z,101253.44
2022-09-06T20:51:18.555Z,101259.19
2022-09-06T20:53:51.453Z,101257.69
2022-09-06T20:56:23.880Z,101258.06
2022-09-06T20:58:55.497Z,101252.28
2022-09-06T21:01:26.872Z,101239.56
2022-09-06T21:03:56.062Z,101238.94
2022-09-06T21:06:23.279Z,101251.94
2022-09-06T21:08:49.762Z,101242.63
2022-09-06T21:11:16.345Z,101220.69
2022-09-06T21:13:42.780Z,101207.38
2022-09-06T21:16:09.534Z,101218.50
2022-09-06T21:18:36.219Z,101222.28
2022-09-06T21:21:07.788Z,101209.19
2022-09-06T21:23:36.826Z,101202.06
2022-09-06T21:26:10.973Z,101212.50
2022-09-06T21:28:39.717Z,101199.78
2022-09-06T21:31:17.743Z,101203.31
2022-09-06T21:33:49.565Z,101205.72
2022-09-06T21:36:18.266Z,101195.59
2022-09-06T21:38:46.743Z,101193.31
2022-09-06T21:41:14.704Z,101188.38
2022-09-06T21:43:41.471Z,101176.91
2022-09-06T21:46:14.458Z,101193.91
2022-09-06T21:48:43.663Z,101193.56
2022-09-06T21:51:13.492Z,101189.31
2022-09-06T21:53:40.681Z,101183.91
2022-09-06T21:56:07.361Z,101051.25
2022-09-06T21:58:34.046Z,101193.22
2022-09-06T22:01:01.412Z,101213.28
2022-09-06T22:03:29.856Z,101237.91
2022-09-06T22:05:56.276Z,101238.25
2022-09-06T22:08:23.447Z,101239.09
2022-09-06T22:10:50.215Z,101279.50
2022-09-06T22:13:18.396Z,101297.38
2022-09-06T22:15:44.980Z,101294.16
2022-09-06T22:18:11.968Z,101307.00
2022-09-06T22:20:38.645Z,101273.44
2022-09-06T22:23:06.448Z,101278.72
2022-09-06T22:25:33.747Z,101300.94
2022-09-06T22:28:00.505Z,101314.13
2022-09-06T22:30:26.964Z,101336.72
2022-09-06T22:32:53.848Z,101345.34
2022-09-06T22:35:21.095Z,101415.81
2022-09-06T22:37:47.486Z,101455.88
2022-09-06T22:40:14.039Z,101455.38
2022-09-06T22:42:40.419Z,101498.75
2022-09-06T22:45:07.249Z,101486.66
2022-09-06T22:47:33.813Z,101475.69
2022-09-06T22:50:00.208Z,101435.03
2022-09-06T22:52:26.646Z,101431.56
2022-09-06T22:54:53.042Z,101471.59
2022-09-06T22:57:19.462Z,101471.25
2022-09-06T22:59:45.855Z,101521.06
2022-09-06T23:02:12.237Z,101514.03
2022-09-06T23:04:38.697Z,101467.53
2022-09-06T23:07:05.918Z,101447.47
2022-09-06T23:09:32.300Z,101467.91
2022-09-06T23:11:58.690Z,101456.38
2022-09-06T23:14:27.844Z,101446.44
2022-09-06T23:16:54.302Z,101439.97
2022-09-06T23:19:20.685Z,101417.44
2022-09-06T23:21:47.071Z,101395.44
2022-09-06T23:24:13.570Z,101389.16
2022-09-06T23:26:39.992Z,101384.72
2022-09-06T23:29:07.231Z,101372.03
2022-09-06T23:31:33.690Z,101386.13
2022-09-06T23:34:01.264Z,101380.53
2022-09-06T23:36:28.496Z,101375.47
2022-09-06T23:38:55.777Z,101370.00
2022-09-06T23:41:22.692Z,101375.81
2022-09-06T23:43:49.513Z,101337.25
2022-09-06T23:46:16.206Z,101318.69
2022-09-06T23:48:43.400Z,101356.94
2022-09-06T23:51:10.527Z,101362.56
2022-09-06T23:53:37.031Z,101377.91
2022-09-06T23:56:03.815Z,101395.56
2022-09-06T23:58:30.348Z,101360.97
